sensor_id;sensor_type;location;lat;lon;timestamp;pressure;altitude;pressure_sealevel;temperature;humidity
71567;BME280;59403;47.456;19.120;2023-05-10T00:00:38;100616.19;;;12.46;81.46
71567;BME280;59403;47.456;19.120;2023-05-10T00:03:05;100616.87;;;12.40;81.66
71567;BME280;59403;47.456;19.120;2023-05-10T00:05:32;100614.53;;;12.37;82.11
71567;BME280;59403;47.456;19.120;2023-05-10T00:07:59;100608.22;;;12.30;83.07
71567;BME280;59403;47.456;19.120;2023-05-10T00:10:26;100609.03;;;12.30;82.72
71567;BME280;59403;47.456;19.120;2023-05-10T00:12:53;100603.88;;;12.29;82.76
71567;BME280;59403;47.456;19.120;2023-05-10T00:15:21;100609.34;;;12.19;83.22
71567;BME280;59403;47.456;19.120;2023-05-10T00:17:48;100606.50;;;12.13;84.12
71567;BME280;59403;47.456;19.120;2023-05-10T00:20:15;100607.84;;;12.17;83.66
71567;BME280;59403;47.456;19.120;2023-05-10T00:22:42;100607.34;;;12.13;83.38
71567;BME280;59403;47.456;19.120;2023-05-10T00:25:10;100599.69;;;12.10;83.86
71567;BME280;59403;47.456;19.120;2023-05-10T00:27:37;100599.03;;;12.08;83.64
71567;BME280;59403;47.456;19.120;2023-05-10T00:30:05;100594.50;;;12.01;84.43
71567;BME280;59403;47.456;19.120;2023-05-10T00:32:33;100595.50;;;11.92;84.91
71567;BME280;59403;47.456;19.120;2023-05-10T00:37:28;100598.28;;;11.82;85.96
71567;BME280;59403;47.456;19.120;2023-05-10T00:39:55;100596.41;;;11.75;86.56
71567;BME280;59403;47.456;19.120;2023-05-10T00:42:22;100593.09;;;11.73;86.42
71567;BME280;59403;47.456;19.120;2023-05-10T00:44:49;100601.53;;;11.68;87.10
71567;BME280;59403;47.456;19.120;2023-05-10T00:47:16;100589.69;;;11.63;87.28
71567;BME280;59403;47.456;19.120;2023-05-10T00:49:45;100598.12;;;11.58;87.33
71567;BME280;59403;47.456;19.120;2023-05-10T00:52:12;100592.16;;;11.56;88.31
71567;BME280;59403;47.456;19.120;2023-05-10T00:54:40;100602.25;;;11.53;88.31
71567;BME280;59403;47.456;19.120;2023-05-10T00:57:07;100591.53;;;11.36;90.10
71567;BME280;59403;47.456;19.120;2023-05-10T00:59:35;100591.38;;;11.38;89.74
71567;BME280;59403;47.456;19.120;2023-05-10T01:04:39;100588.44;;;11.41;90.72
71567;BME280;59403;47.456;19.120;2023-05-10T01:07:09;100586.91;;;11.38;93.12
71567;BME280;59403;47.456;19.120;2023-05-10T01:09:36;100590.75;;;11.44;90.91
71567;BME280;59403;47.456;19.120;2023-05-10T01:12:05;100592.91;;;11.40;91.32
71567;BME280;59403;47.456;19.120;2023-05-10T01:14:33;100583.94;;;11.41;92.16
71567;BME280;59403;47.456;19.120;2023-05-10T01:17:01;100593.94;;;11.48;90.93
71567;BME280;59403;47.456;19.120;2023-05-10T01:19:29;100588.66;;;11.56;91.06
71567;BME280;59403;47.456;19.120;2023-05-10T01:22:11;100588.97;;;11.53;91.61
71567;BME280;59403;47.456;19.120;2023-05-10T01:25:22;100589.66;;;11.55;91.42
71567;BME280;59403;47.456;19.120;2023-05-10T01:28:18;100586.22;;;11.62;90.96
71567;BME280;59403;47.456;19.120;2023-05-10T01:31:22;100580.47;;;11.67;90.15
71567;BME280;59403;47.456;19.120;2023-05-10T01:33:59;100584.75;;;11.68;91.86
71567;BME280;59403;47.456;19.120;2023-05-10T01:36:30;100576.16;;;11.66;90.28
71567;BME280;59403;47.456;19.120;2023-05-10T01:39:02;100582.94;;;11.68;91.41
71567;BME280;59403;47.456;19.120;2023-05-10T01:41:39;100583.94;;;11.67;90.72
71567;BME280;59403;47.456;19.120;2023-05-10T01:44:14;100578.25;;;11.62;91.13
71567;BME280;59403;47.456;19.120;2023-05-10T01:46:42;100578.94;;;11.64;90.68
71567;BME280;59403;47.456;19.120;2023-05-10T01:49:16;100575.44;;;11.64;90.91
71567;BME280;59403;47.456;19.120;2023-05-10T01:51:50;100572.69;;;11.73;90.20
71567;BME280;59403;47.456;19.120;2023-05-10T01:54:21;100566.69;;;11.71;90.51
71567;BME280;59403;47.456;19.120;2023-05-10T01:56:55;100569.25;;;11.81;90.40
71567;BME280;59403;47.456;19.120;2023-05-10T01:59:25;100571.56;;;11.84;89.86
71567;BME280;59403;47.456;19.120;2023-05-10T02:01:56;100569.41;;;11.87;89.33
71567;BME280;59403;47.456;19.120;2023-05-10T02:04:27;100568.44;;;11.88;89.56
71567;BME280;59403;47.456;19.120;2023-05-10T02:06:55;100564.12;;;11.87;89.53
71567;BME280;59403;47.456;19.120;2023-05-10T02:09:24;100555.19;;;11.88;88.66
71567;BME280;59403;47.456;19.120;2023-05-10T02:11:53;100562.13;;;11.89;88.02
71567;BME280;59403;47.456;19.120;2023-05-10T02:14:21;100558.97;;;11.94;87.68
71567;BME280;59403;47.456;19.120;2023-05-10T02:16:50;100558.69;;;11.97;87.45
71567;BME280;59403;47.456;19.120;2023-05-10T02:19:18;100558.97;;;11.94;87.47
71567;BME280;59403;47.456;19.120;2023-05-10T02:21:49;100558.84;;;11.95;87.79
71567;BME280;59403;47.456;19.120;2023-05-10T02:24:17;100563.47;;;11.93;88.03
71567;BME280;59403;47.456;19.120;2023-05-10T02:26:47;100553.84;;;11.92;87.85
71567;BME280;59403;47.456;19.120;2023-05-10T02:29:16;100548.87;;;11.97;87.29
71567;BME280;59403;47.456;19.120;2023-05-10T02:31:44;100549.72;;;11.98;87.43
71567;BME280;59403;47.456;19.120;2023-05-10T02:34:12;100549.72;;;11.98;87.50
71567;BME280;59403;47.456;19.120;2023-05-10T02:36:41;100548.56;;;12.00;87.13
71567;BME280;59403;47.456;19.120;2023-05-10T02:39:11;100552.69;;;11.95;87.22
71567;BME280;59403;47.456;19.120;2023-05-10T02:41:40;100557.16;;;11.94;86.69
71567;BME280;59403;47.456;19.120;2023-05-10T02:44:07;100553.69;;;11.94;86.36
71567;BME280;59403;47.456;19.120;2023-05-10T02:46:35;100553.16;;;11.90;86.23
71567;BME280;59403;47.456;19.120;2023-05-10T02:49:03;100556.66;;;11.91;86.00
71567;BME280;59403;47.456;19.120;2023-05-10T02:51:32;100558.13;;;11.85;85.54
71567;BME280;59403;47.456;19.120;2023-05-10T02:54:06;100559.13;;;11.84;85.62
71567;BME280;59403;47.456;19.120;2023-05-10T02:56:42;100557.16;;;11.86;85.54
71567;BME280;59403;47.456;19.120;2023-05-10T02:59:11;100556.66;;;11.83;85.51
71567;BME280;59403;47.456;19.120;2023-05-10T03:01:38;100552.47;;;11.80;85.59
71567;BME280;59403;47.456;19.120;2023-05-10T03:04:05;100558.97;;;11.78;85.50
71567;BME280;59403;47.456;19.120;2023-05-10T03:06:32;100556.13;;;11.79;85.60
71567;BME280;59403;47.456;19.120;2023-05-10T03:08:59;100551.47;;;11.73;85.77
71567;BME280;59403;47.456;19.120;2023-05-10T03:11:43;100562.25;;;11.72;86.13
71567;BME280;59403;47.456;19.120;2023-05-10T03:14:21;100555.91;;;11.65;86.21
71567;BME280;59403;47.456;19.120;2023-05-10T03:16:56;100561.16;;;11.57;87.25
71567;BME280;59403;47.456;19.120;2023-05-10T03:19:29;100556.19;;;11.54;86.36
71567;BME280;59403;47.456;19.120;2023-05-10T03:21:59;100559.09;;;11.42;86.46
71567;BME280;59403;47.456;19.120;2023-05-10T03:24:30;100553.81;;;11.51;86.20
71567;BME280;59403;47.456;19.120;2023-05-10T03:27:00;100553.47;;;11.45;86.37
71567;BME280;59403;47.456;19.120;2023-05-10T03:29:29;100556.81;;;11.48;86.13
71567;BME280;59403;47.456;19.120;2023-05-10T03:31:57;100553.62;;;11.44;86.09
71567;BME280;59403;47.456;19.120;2023-05-10T03:34:25;100555.28;;;11.45;86.08
71567;BME280;59403;47.456;19.120;2023-05-10T03:36:52;100559.78;;;11.44;85.95
71567;BME280;59403;47.456;19.120;2023-05-10T03:39:19;100556.78;;;11.39;86.52
71567;BME280;59403;47.456;19.120;2023-05-10T03:41:46;100558.75;;;11.37;86.62
71567;BME280;59403;47.456;19.120;2023-05-10T03:44:15;100552.75;;;11.35;86.09
71567;BME280;59403;47.456;19.120;2023-05-10T03:46:41;100549.84;;;11.47;85.59
71567;BME280;59403;47.456;19.120;2023-05-10T03:49:08;100553.31;;;11.47;85.33
71567;BME280;59403;47.456;19.120;2023-05-10T03:51:35;100558.59;;;11.47;85.42
71567;BME280;59403;47.456;19.120;2023-05-10T03:54:02;100559.97;;;11.51;85.40
71567;BME280;59403;47.456;19.120;2023-05-10T03:56:29;100553.97;;;11.49;85.37
71567;BME280;59403;47.456;19.120;2023-05-10T03:58:56;100564.44;;;11.51;86.28
71567;BME280;59403;47.456;19.120;2023-05-10T04:01:24;100564.44;;;11.51;85.88
71567;BME280;59403;47.456;19.120;2023-05-10T04:03:51;100559.63;;;11.54;85.57
71567;BME280;59403;47.456;19.120;2023-05-10T04:06:17;100557.31;;;11.51;85.44
71567;BME280;59403;47.456;19.120;2023-05-10T04:08:45;100560.84;;;11.60;85.32
71567;BME280;59403;47.456;19.120;2023-05-10T04:11:12;100554.38;;;11.62;85.09
71567;BME280;59403;47.456;19.120;2023-05-10T04:13:39;100553.09;;;11.66;85.22
71567;BME280;59403;47.456;19.120;2023-05-10T04:16:06;100558.09;;;11.69;84.89
71567;BME280;59403;47.456;19.120;2023-05-10T04:18:35;100549.91;;;11.63;85.05
71567;BME280;59403;47.456;19.120;2023-05-10T04:21:01;100552.41;;;11.64;85.03
71567;BME280;59403;47.456;19.120;2023-05-10T04:23:28;100554.84;;;11.58;85.32
71567;BME280;59403;47.456;19.120;2023-05-10T04:25:59;100553.00;;;11.50;86.14
71567;BME280;59403;47.456;19.120;2023-05-10T04:28:26;100553.66;;;11.52;86.40
71567;BME280;59403;47.456;19.120;2023-05-10T04:30:53;100550.38;;;11.50;86.21
71567;BME280;59403;47.456;19.120;2023-05-10T04:33:20;100550.03;;;11.53;86.08
71567;BME280;59403;47.456;19.120;2023-05-10T04:35:48;100555.00;;;11.48;87.31
71567;BME280;59403;47.456;19.120;2023-05-10T04:38:15;100550.03;;;11.53;86.47
71567;BME280;59403;47.456;19.120;2023-05-10T04:40:42;100556.47;;;11.51;86.84
71567;BME280;59403;47.456;19.120;2023-05-10T04:43:09;100567.09;;;11.51;86.80
71567;BME280;59403;47.456;19.120;2023-05-10T04:45:35;100557.62;;;11.48;87.87
71567;BME280;59403;47.456;19.120;2023-05-10T04:48:02;100560.28;;;11.48;87.16
71567;BME280;59403;47.456;19.120;2023-05-10T04:50:30;100561.09;;;11.48;86.67
71567;BME280;59403;47.456;19.120;2023-05-10T04:52:58;100561.50;;;11.62;87.17
71567;BME280;59403;47.456;19.120;2023-05-10T04:55:25;100560.06;;;11.67;86.14
71567;BME280;59403;47.456;19.120;2023-05-10T04:57:52;100559.22;;;11.67;86.46
71567;BME280;59403;47.456;19.120;2023-05-10T05:00:20;100558.09;;;11.69;85.88
71567;BME280;59403;47.456;19.120;2023-05-10T05:02:47;100560.75;;;11.69;85.76
71567;BME280;59403;47.456;19.120;2023-05-10T05:05:14;100568.25;;;11.82;84.95
71567;BME280;59403;47.456;19.120;2023-05-10T05:07:41;100567.09;;;11.84;85.05
71567;BME280;59403;47.456;19.120;2023-05-10T05:10:09;100569.09;;;11.90;84.84
71567;BME280;59403;47.456;19.120;2023-05-10T05:12:36;100571.47;;;12.01;85.01
71567;BME280;59403;47.456;19.120;2023-05-10T05:15:04;100567.69;;;12.20;84.24
71567;BME280;59403;47.456;19.120;2023-05-10T05:17:31;100573.31;;;12.17;83.50
71567;BME280;59403;47.456;19.120;2023-05-10T05:19:58;100571.50;;;12.25;84.22
71567;BME280;59403;47.456;19.120;2023-05-10T05:22:24;100577.84;;;12.32;83.25
71567;BME280;59403;47.456;19.120;2023-05-10T05:24:53;100582.63;;;12.29;83.48
71567;BME280;59403;47.456;19.120;2023-05-10T05:27:21;100581.12;;;12.18;83.02
71567;BME280;59403;47.456;19.120;2023-05-10T05:29:49;100572.19;;;12.35;82.75
71567;BME280;59403;47.456;19.120;2023-05-10T05:32:16;100581.81;;;12.28;82.86
71567;BME280;59403;47.456;19.120;2023-05-10T05:34:44;100572.34;;;12.34;83.49
71567;BME280;59403;47.456;19.120;2023-05-10T05:37:13;100585.47;;;12.35;83.48
71567;BME280;59403;47.456;19.120;2023-05-10T05:39:39;100583.50;;;12.45;83.87
71567;BME280;59403;47.456;19.120;2023-05-10T05:42:06;100584.66;;;12.51;83.17
71567;BME280;59403;47.456;19.120;2023-05-10T05:44:35;100588.16;;;12.68;82.56
71567;BME280;59403;47.456;19.120;2023-05-10T05:47:01;100592.97;;;12.72;82.15
71567;BME280;59403;47.456;19.120;2023-05-10T05:49:28;100591.16;;;12.73;82.26
71567;BME280;59403;47.456;19.120;2023-05-10T05:51:58;100591.97;;;12.81;82.52
71567;BME280;59403;47.456;19.120;2023-05-10T05:54:25;100590.81;;;13.16;80.17
71567;BME280;59403;47.456;19.120;2023-05-10T05:56:54;100595.44;;;13.38;79.59
71567;BME280;59403;47.456;19.120;2023-05-10T05:59:21;100595.38;;;13.54;78.00
71567;BME280;59403;47.456;19.120;2023-05-10T06:01:49;100594.53;;;13.61;77.64
71567;BME280;59403;47.456;19.120;2023-05-10T06:04:17;100596.50;;;13.76;76.11
71567;BME280;59403;47.456;19.120;2023-05-10T06:06:44;100593.91;;;13.90;76.69
71567;BME280;59403;47.456;19.120;2023-05-10T06:09:11;100592.94;;;13.91;76.12
71567;BME280;59403;47.456;19.120;2023-05-10T06:11:38;100595.47;;;13.77;76.30
71567;BME280;59403;47.456;19.120;2023-05-10T06:14:05;100596.31;;;13.77;76.88
71567;BME280;59403;47.456;19.120;2023-05-10T06:16:33;100599.22;;;13.98;76.51
71567;BME280;59403;47.456;19.120;2023-05-10T06:19:01;100594.59;;;14.23;76.64
71567;BME280;59403;47.456;19.120;2023-05-10T06:21:29;100598.78;;;14.48;76.07
71567;BME280;59403;47.456;19.120;2023-05-10T06:23:55;100601.09;;;14.51;75.46
71567;BME280;59403;47.456;19.120;2023-05-10T06:26:22;100597.91;;;14.55;74.51
71567;BME280;59403;47.456;19.120;2023-05-10T06:28:49;100593.81;;;14.67;74.86
71567;BME280;59403;47.456;19.120;2023-05-10T06:31:16;100597.53;;;14.05;77.70
71567;BME280;59403;47.456;19.120;2023-05-10T06:33:43;100608.28;;;14.50;75.72
71567;BME280;59403;47.456;19.120;2023-05-10T06:36:11;100605.38;;;14.60;74.04
71567;BME280;59403;47.456;19.120;2023-05-10T06:38:38;100615.78;;;14.47;77.04
71567;BME280;59403;47.456;19.120;2023-05-10T06:41:05;100611.09;;;14.18;78.66
71567;BME280;59403;47.456;19.120;2023-05-10T06:43:34;100602.38;;;14.32;77.45
71567;BME280;59403;47.456;19.120;2023-05-10T06:46:05;100605.94;;;14.70;77.04
71567;BME280;59403;47.456;19.120;2023-05-10T06:48:32;100607.63;;;14.71;77.09
71567;BME280;59403;47.456;19.120;2023-05-10T06:50:59;100607.75;;;15.15;74.18
71567;BME280;59403;47.456;19.120;2023-05-10T06:53:27;100611.03;;;15.02;74.68
71567;BME280;59403;47.456;19.120;2023-05-10T06:55:55;100611.88;;;15.17;73.36
71567;BME280;59403;47.456;19.120;2023-05-10T06:58:21;100598.06;;;15.65;72.60
71567;BME280;59403;47.456;19.120;2023-05-10T07:00:49;100598.34;;;15.70;71.49
71567;BME280;59403;47.456;19.120;2023-05-10T07:03:15;100601.53;;;16.10;71.37
71567;BME280;59403;47.456;19.120;2023-05-10T07:05:45;100601.66;;;15.87;71.14
71567;BME280;59403;47.456;19.120;2023-05-10T07:08:13;100599.03;;;16.23;71.36
71567;BME280;59403;47.456;19.120;2023-05-10T07:10:41;100602.81;;;16.14;69.72
71567;BME280;59403;47.456;19.120;2023-05-10T07:13:08;100602.94;;;15.76;70.61
71567;BME280;59403;47.456;19.120;2023-05-10T07:15:35;100596.16;;;15.74;70.76
71567;BME280;59403;47.456;19.120;2023-05-10T07:18:02;100600.09;;;15.49;71.71
71567;BME280;59403;47.456;19.120;2023-05-10T07:20:31;100598.72;;;15.16;70.26
71567;BME280;59403;47.456;19.120;2023-05-10T07:22:58;100599.09;;;15.27;71.55
71567;BME280;59403;47.456;19.120;2023-05-10T07:25:25;100593.56;;;15.66;69.45
71567;BME280;59403;47.456;19.120;2023-05-10T07:27:53;100595.41;;;15.51;69.77
71567;BME280;59403;47.456;19.120;2023-05-10T07:30:20;100594.22;;;15.16;70.22
71567;BME280;59403;47.456;19.120;2023-05-10T07:32:48;100588.31;;;15.43;69.14
71567;BME280;59403;47.456;19.120;2023-05-10T07:35:15;100592.19;;;16.20;67.30
71567;BME280;59403;47.456;19.120;2023-05-10T07:37:41;100583.09;;;16.50;67.21
71567;BME280;59403;47.456;19.120;2023-05-10T07:40:09;100581.81;;;16.88;65.44
71567;BME280;59403;47.456;19.120;2023-05-10T07:42:36;100581.38;;;16.07;68.09
71567;BME280;59403;47.456;19.120;2023-05-10T07:45:06;100582.16;;;15.72;68.43
71567;BME280;59403;47.456;19.120;2023-05-10T07:47:33;100585.38;;;16.53;66.03
71567;BME280;59403;47.456;19.120;2023-05-10T07:50:00;100584.75;;;16.93;63.62
71567;BME280;59403;47.456;19.120;2023-05-10T07:52:27;100579.91;;;17.10;62.80
71567;BME280;59403;47.456;19.120;2023-05-10T07:54:54;100586.13;;;16.12;65.21
71567;BME280;59403;47.456;19.120;2023-05-10T07:57:22;100585.81;;;16.00;67.12
71567;BME280;59403;47.456;19.120;2023-05-10T07:59:50;100585.59;;;16.52;66.93
71567;BME280;59403;47.456;19.120;2023-05-10T08:02:18;100592.31;;;16.48;63.68
71567;BME280;59403;47.456;19.120;2023-05-10T08:04:45;100591.81;;;17.29;62.81
71567;BME280;59403;47.456;19.120;2023-05-10T08:07:13;100594.31;;;17.37;61.55
71567;BME280;59403;47.456;19.120;2023-05-10T08:09:41;100586.25;;;17.58;60.45
71567;BME280;59403;47.456;19.120;2023-05-10T08:12:08;100584.66;;;17.36;59.92
71567;BME280;59403;47.456;19.120;2023-05-10T08:14:36;100584.22;;;17.32;61.50
71567;BME280;59403;47.456;19.120;2023-05-10T08:17:03;100580.50;;;17.61;60.74
71567;BME280;59403;47.456;19.120;2023-05-10T08:19:31;100576.91;;;17.88;57.85
71567;BME280;59403;47.456;19.120;2023-05-10T08:22:01;100585.31;;;17.44;59.24
71567;BME280;59403;47.456;19.120;2023-05-10T08:24:28;100589.84;;;17.44;59.14
71567;BME280;59403;47.456;19.120;2023-05-10T08:26:55;100585.38;;;16.95;60.05
71567;BME280;59403;47.456;19.120;2023-05-10T08:29:22;100593.41;;;17.23;60.82
71567;BME280;59403;47.456;19.120;2023-05-10T08:31:48;100576.91;;;16.71;61.73
71567;BME280;59403;47.456;19.120;2023-05-10T08:34:15;100582.22;;;16.64;62.21
71567;BME280;59403;47.456;19.120;2023-05-10T08:36:44;100587.06;;;16.40;62.28
71567;BME280;59403;47.456;19.120;2023-05-10T08:39:10;100582.47;;;16.34;63.07
71567;BME280;59403;47.456;19.120;2023-05-10T08:41:39;100576.72;;;16.37;63.13
71567;BME280;59403;47.456;19.120;2023-05-10T08:44:07;100584.22;;;16.41;64.19
71567;BME280;59403;47.456;19.120;2023-05-10T08:46:36;100575.47;;;16.33;63.24
71567;BME280;59403;47.456;19.120;2023-05-10T08:49:06;100578.50;;;16.30;63.55
71567;BME280;59403;47.456;19.120;2023-05-10T08:51:36;100576.91;;;17.47;60.70
71567;BME280;59403;47.456;19.120;2023-05-10T08:54:08;100572.00;;;17.51;61.25
71567;BME280;59403;47.456;19.120;2023-05-10T08:56:36;100571.91;;;18.26;57.85
71567;BME280;59403;47.456;19.120;2023-05-10T08:59:03;100577.47;;;18.24;55.80
71567;BME280;59403;47.456;19.120;2023-05-10T09:01:31;100576.44;;;17.44;59.04
71567;BME280;59403;47.456;19.120;2023-05-10T09:03:59;100573.88;;;17.57;58.62
71567;BME280;59403;47.456;19.120;2023-05-10T09:06:26;100571.75;;;17.86;58.03
71567;BME280;59403;47.456;19.120;2023-05-10T09:08:54;100569.37;;;18.11;58.24
71567;BME280;59403;47.456;19.120;2023-05-10T09:11:23;100577.06;;;18.21;57.13
71567;BME280;59403;47.456;19.120;2023-05-10T09:13:51;100583.84;;;18.17;56.20
71567;BME280;59403;47.456;19.120;2023-05-10T09:16:18;100579.59;;;17.20;59.30
71567;BME280;59403;47.456;19.120;2023-05-10T09:18:46;100579.81;;;17.25;59.73
71567;BME280;59403;47.456;19.120;2023-05-10T09:21:13;100586.53;;;17.14;60.01
71567;BME280;59403;47.456;19.120;2023-05-10T09:23:42;100576.22;;;17.73;58.46
71567;BME280;59403;47.456;19.120;2023-05-10T09:26:09;100577.84;;;18.08;56.94
71567;BME280;59403;47.456;19.120;2023-05-10T09:28:51;100570.78;;;18.67;55.37
71567;BME280;59403;47.456;19.120;2023-05-10T09:31:19;100574.09;;;18.89;55.56
71567;BME280;59403;47.456;19.120;2023-05-10T09:33:46;100556.97;;;18.64;53.71
71567;BME280;59403;47.456;19.120;2023-05-10T09:36:13;100565.94;;;18.37;55.23
71567;BME280;59403;47.456;19.120;2023-05-10T09:38:47;100571.19;;;17.97;55.64
71567;BME280;59403;47.456;19.120;2023-05-10T09:41:18;100554.47;;;19.01;53.32
71567;BME280;59403;47.456;19.120;2023-05-10T09:43:47;100560.06;;;18.74;52.81
71567;BME280;59403;47.456;19.120;2023-05-10T09:46:14;100551.16;;;18.67;53.89
71567;BME280;59403;47.456;19.120;2023-05-10T09:48:42;100560.88;;;18.81;54.96
71567;BME280;59403;47.456;19.120;2023-05-10T09:51:09;100551.97;;;19.39;54.62
71567;BME280;59403;47.456;19.120;2023-05-10T09:53:36;100555.72;;;18.92;53.56
71567;BME280;59403;47.456;19.120;2023-05-10T09:56:04;100569.16;;;18.06;54.43
71567;BME280;59403;47.456;19.120;2023-05-10T09:58:31;100552.72;;;18.29;54.53
71567;BME280;59403;47.456;19.120;2023-05-10T10:01:10;100558.81;;;19.15;51.63
71567;BME280;59403;47.456;19.120;2023-05-10T10:03:41;100546.41;;;18.49;53.73
71567;BME280;59403;47.456;19.120;2023-05-10T10:06:08;100547.50;;;18.01;53.94
71567;BME280;59403;47.456;19.120;2023-05-10T10:08:36;100543.00;;;18.14;54.96
71567;BME280;59403;47.456;19.120;2023-05-10T10:11:03;100549.63;;;18.25;55.46
71567;BME280;59403;47.456;19.120;2023-05-10T10:13:30;100542.06;;;19.20;52.08
71567;BME280;59403;47.456;19.120;2023-05-10T10:15:58;100538.78;;;18.53;52.88
71567;BME280;59403;47.456;19.120;2023-05-10T10:18:27;100536.34;;;17.97;53.57
71567;BME280;59403;47.456;19.120;2023-05-10T10:20:55;100539.22;;;17.89;54.15
71567;BME280;59403;47.456;19.120;2023-05-10T10:23:22;100526.41;;;18.84;52.62
71567;BME280;59403;47.456;19.120;2023-05-10T10:25:49;100535.00;;;19.52;51.14
71567;BME280;59403;47.456;19.120;2023-05-10T10:28:24;100520.00;;;18.98;48.73
71567;BME280;59403;47.456;19.120;2023-05-10T10:30:54;100524.25;;;18.21;52.23
71567;BME280;59403;47.456;19.120;2023-05-10T10:33:56;100516.22;;;18.28;51.21
71567;BME280;59403;47.456;19.120;2023-05-10T10:36:26;100515.88;;;18.63;52.21
71567;BME280;59403;47.456;19.120;2023-05-10T10:38:59;100514.66;;;18.66;51.80
71567;BME280;59403;47.456;19.120;2023-05-10T10:41:32;100510.25;;;18.32;50.76
71567;BME280;59403;47.456;19.120;2023-05-10T10:44:24;100512.09;;;19.49;50.16
71567;BME280;59403;47.456;19.120;2023-05-10T10:47:01;100515.25;;;18.94;48.79
71567;BME280;59403;47.456;19.120;2023-05-10T10:49:32;100509.03;;;19.06;49.84
71567;BME280;59403;47.456;19.120;2023-05-10T10:52:33;100501.41;;;19.03;50.08
71567;BME280;59403;47.456;19.120;2023-05-10T10:55:02;100505.09;;;18.31;49.81
71567;BME280;59403;47.456;19.120;2023-05-10T10:57:43;100502.81;;;18.28;50.79
71567;BME280;59403;47.456;19.120;2023-05-10T11:00:24;100499.94;;;18.36;50.77
71567;BME280;59403;47.456;19.120;2023-05-10T11:02:53;100494.44;;;18.76;49.78
71567;BME280;59403;47.456;19.120;2023-05-10T11:08:16;100498.13;;;18.56;49.83
71567;BME280;59403;47.456;19.120;2023-05-10T11:11:01;100486.28;;;18.17;50.74
71567;BME280;59403;47.456;19.120;2023-05-10T11:13:31;100481.91;;;17.84;50.83
71567;BME280;59403;47.456;19.120;2023-05-10T11:15:58;100484.78;;;17.89;50.79
71567;BME280;59403;47.456;19.120;2023-05-10T11:18:28;100481.91;;;17.97;51.37
71567;BME280;59403;47.456;19.120;2023-05-10T11:21:01;100467.50;;;17.98;50.79
71567;BME280;59403;47.456;19.120;2023-05-10T11:23:31;100473.72;;;18.05;51.17
71567;BME280;59403;47.456;19.120;2023-05-10T11:25:59;100471.50;;;18.74;49.83
71567;BME280;59403;47.456;19.120;2023-05-10T11:28:27;100478.03;;;19.17;48.12
71567;BME280;59403;47.456;19.120;2023-05-10T11:30:54;100466.41;;;19.43;47.21
71567;BME280;59403;47.456;19.120;2023-05-10T11:33:22;100469.25;;;19.61;45.94
71567;BME280;59403;47.456;19.120;2023-05-10T11:35:49;100465.97;;;19.52;45.86
71567;BME280;59403;47.456;19.120;2023-05-10T11:38:17;100462.50;;;19.83;46.28
71567;BME280;59403;47.456;19.120;2023-05-10T11:40:44;100461.09;;;19.80;46.21
71567;BME280;59403;47.456;19.120;2023-05-10T11:43:10;100457.78;;;19.41;47.33
71567;BME280;59403;47.456;19.120;2023-05-10T11:45:38;100460.72;;;19.06;45.83
71567;BME280;59403;47.456;19.120;2023-05-10T11:48:06;100457.19;;;19.12;46.89
71567;BME280;59403;47.456;19.120;2023-05-10T11:50:33;100453.47;;;19.13;47.82
71567;BME280;59403;47.456;19.120;2023-05-10T11:53:00;100456.00;;;18.82;48.64
71567;BME280;59403;47.456;19.120;2023-05-10T11:55:33;100451.25;;;18.84;48.96
71567;BME280;59403;47.456;19.120;2023-05-10T11:58:01;100452.50;;;18.75;48.60
71567;BME280;59403;47.456;19.120;2023-05-10T12:00:29;100459.12;;;18.79;51.74
71567;BME280;59403;47.456;19.120;2023-05-10T12:02:57;100462.41;;;18.75;48.18
71567;BME280;59403;47.456;19.120;2023-05-10T12:05:24;100455.62;;;18.72;47.75
71567;BME280;59403;47.456;19.120;2023-05-10T12:07:51;100459.94;;;18.73;47.09
71567;BME280;59403;47.456;19.120;2023-05-10T12:10:25;100454.59;;;18.67;47.73
71567;BME280;59403;47.456;19.120;2023-05-10T12:12:53;100458.69;;;18.82;49.12
71567;BME280;59403;47.456;19.120;2023-05-10T12:15:22;100452.22;;;19.09;48.21
71567;BME280;59403;47.456;19.120;2023-05-10T12:17:49;100456.03;;;18.63;46.93
71567;BME280;59403;47.456;19.120;2023-05-10T12:20:18;100453.75;;;18.79;47.82
71567;BME280;59403;47.456;19.120;2023-05-10T12:22:51;100450.22;;;18.98;47.40
71567;BME280;59403;47.456;19.120;2023-05-10T12:25:19;100452.06;;;18.98;47.99
71567;BME280;59403;47.456;19.120;2023-05-10T12:27:51;100449.63;;;18.64;48.11
71567;BME280;59403;47.456;19.120;2023-05-10T12:30:23;100442.59;;;18.24;49.83
71567;BME280;59403;47.456;19.120;2023-05-10T12:32:51;100446.94;;;18.38;49.26
71567;BME280;59403;47.456;19.120;2023-05-10T12:35:18;100443.22;;;18.45;50.30
71567;BME280;59403;47.456;19.120;2023-05-10T12:37:47;100433.16;;;18.54;50.23
71567;BME280;59403;47.456;19.120;2023-05-10T12:40:14;100452.53;;;18.62;49.07
71567;BME280;59403;47.456;19.120;2023-05-10T12:42:41;100443.22;;;18.65;48.90
71567;BME280;59403;47.456;19.120;2023-05-10T12:45:13;100429.59;;;18.86;48.19
71567;BME280;59403;47.456;19.120;2023-05-10T12:47:41;100422.91;;;19.14;48.22
71567;BME280;59403;47.456;19.120;2023-05-10T12:50:09;100424.34;;;19.17;46.89
71567;BME280;59403;47.456;19.120;2023-05-10T12:52:36;100426.13;;;19.49;47.67
71567;BME280;59403;47.456;19.120;2023-05-10T12:55:03;100423.75;;;19.66;45.77
71567;BME280;59403;47.456;19.120;2023-05-10T12:57:30;100417.53;;;19.72;45.83